Time;durP1;ratioP1;P1;durP2;ratioP2;P2;SDS_P1;SDS_P2;PMS_P1;PMS_P2;Temp;Humidity;BMP_temperature;BMP_pressure;BME280_temperature;BME280_humidity;BME280_pressure;Samples;Min_cycle;Max_cycle;Signal;HPM_P1;HPM_P2
2023/02/08 00:01:24;;;;;;;39.92;18.05;;;;;;;-1.83;82.36;102602.95;1389036;89;21362;-80
2023/02/08 00:03:51;;;;;;;33.73;16.90;;;;;;;-1.83;82.38;102601.66;1376295;90;21334;-80
2023/02/08 00:06:17;;;;;;;35.17;17.15;;;;;;;-1.85;82.41;102607.29;1388580;89;21362;-80
2023/02/08 00:08:44;;;;;;;37.17;20.52;;;;;;;-1.87;82.07;102608.17;1388350;89;22168;-80
2023/02/08 00:11:11;;;;;;;35.45;18.60;;;;;;;-1.83;82.16;102602.95;1388630;89;21510;-79
2023/02/08 00:13:40;;;;;;;29.35;15.85;;;;;;;-1.83;82.10;102610.74;1388014;89;22199;-81
2023/02/08 00:16:07;;;;;;;34.70;17.90;;;;;;;-1.85;82.15;102617.67;1393638;89;21546;-79
2023/02/08 00:18:33;;;;;;;39.63;18.37;;;;;;;-1.90;82.23;102616.88;1457559;89;21671;-80
2023/02/08 00:20:59;;;;;;;34.73;17.82;;;;;;;-1.88;82.25;102623.34;1465016;89;21503;-82
2023/02/08 00:23:26;;;;;;;34.63;18.57;;;;;;;-1.89;82.34;102628.12;1388278;89;21332;-83
2023/02/08 00:25:52;;;;;;;34.78;15.08;;;;;;;-1.91;82.37;102629.41;1388367;89;21304;-81
2023/02/08 00:28:19;;;;;;;36.65;19.65;;;;;;;-1.90;82.13;102633.75;1389302;89;21436;-79
2023/02/08 00:30:45;;;;;;;42.88;20.27;;;;;;;-1.87;82.23;102635.43;1388498;89;21356;-81
2023/02/08 00:33:11;;;;;;;39.65;19.85;;;;;;;-1.88;82.31;102640.21;1389325;89;22249;-81
2023/02/08 00:35:39;;;;;;;35.25;19.48;;;;;;;-1.90;82.49;102642.84;1388410;89;21535;-82
2023/02/08 00:38:05;;;;;;;38.90;21.42;;;;;;;-1.94;82.80;102641.56;1387315;89;21384;-82
2023/02/08 00:40:32;;;;;;;37.85;19.52;;;;;;;-1.92;82.58;102639.39;1390895;89;21422;-81
2023/02/08 00:42:58;;;;;;;32.53;17.32;;;;;;;-1.90;82.53;102644.55;1547457;89;21356;-82
2023/02/08 00:45:24;;;;;;;40.33;21.40;;;;;;;-1.90;82.41;102645.44;1389281;89;22340;-80
2023/02/08 00:47:50;;;;;;;43.92;21.62;;;;;;;-1.87;82.58;102649.30;1389222;89;21430;-78
2023/02/08 00:50:17;;;;;;;45.08;21.57;;;;;;;-1.86;82.37;102652.30;1389467;89;21429;-80
2023/02/08 00:52:43;;;;;;;37.93;21.30;;;;;;;-1.84;82.12;102650.56;1388954;89;21503;-82
2023/02/08 00:55:10;;;;;;;38.17;18.45;;;;;;;-1.86;82.27;102652.30;1389350;89;21400;-81
2023/02/08 00:57:36;;;;;;;38.63;20.70;;;;;;;-1.96;82.78;102650.65;1396376;89;21511;-82
2023/02/08 01:00:05;;;;;;;39.33;20.77;;;;;;;-1.93;82.67;102651.92;1461619;89;21630;-82
2023/02/08 01:02:31;;;;;;;38.02;20.95;;;;;;;-1.90;82.60;102657.11;1386135;89;21528;-82
2023/02/08 01:04:57;;;;;;;40.03;19.73;;;;;;;-1.93;82.77;102654.95;1389271;89;22243;-82
2023/02/08 01:07:23;;;;;;;38.48;20.82;;;;;;;-1.97;83.08;102656.72;1388952;89;21311;-83
2023/02/08 01:09:50;;;;;;;38.15;20.12;;;;;;;-2.05;83.36;102648.14;1395265;89;21578;-83
2023/02/08 01:12:16;;;;;;;38.65;18.00;;;;;;;-2.06;83.67;102655.52;1532682;89;21332;-81
2023/02/08 01:14:42;;;;;;;37.85;18.42;;;;;;;-2.07;83.67;102656.39;1389001;89;22198;-81
2023/02/08 01:17:08;;;;;;;39.18;21.00;;;;;;;-2.08;83.67;102645.12;1389433;89;21511;-82
2023/02/08 01:19:35;;;;;;;43.52;20.35;;;;;;;-2.03;83.58;102656.78;1388801;89;21346;-82
2023/02/08 01:22:01;;;;;;;41.55;19.77;;;;;;;-2.10;83.96;102651.20;1395119;89;21613;-81
2023/02/08 01:24:27;;;;;;;36.33;18.02;;;;;;;-2.05;84.09;102642.50;1389205;89;21370;-82
2023/02/08 01:26:53;;;;;;;38.00;18.57;;;;;;;-2.02;83.93;102642.06;1389201;89;21326;-82
2023/02/08 01:29:19;;;;;;;43.50;21.73;;;;;;;-2.09;84.19;102636.08;1379458;90;21339;-81
2023/02/08 01:31:46;;;;;;;39.18;18.48;;;;;;;-2.02;84.12;102640.33;1394955;89;22156;-80
2023/02/08 01:34:12;;;;;;;33.83;17.67;;;;;;;-2.03;84.17;102646.40;1547284;89;22170;-80
2023/02/08 01:36:39;;;;;;;38.10;19.52;;;;;;;-2.03;84.15;102650.73;1388163;89;21548;-80
2023/02/08 01:39:07;;;;;;;36.53;19.67;;;;;;;-2.03;84.29;102649.00;1388583;89;21429;-79
2023/02/08 01:41:42;;;;;;;40.67;22.35;;;;;;;-2.03;84.09;102654.19;1394538;89;22250;-78
2023/02/08 01:44:17;;;;;;;37.15;17.92;;;;;;;-2.08;84.30;102655.95;1551623;88;21363;-81
2023/02/08 01:46:50;;;;;;;41.98;21.57;;;;;;;-2.08;84.23;102663.30;1551641;89;21355;-81
2023/02/08 01:49:29;;;;;;;42.23;21.15;;;;;;;-2.11;84.27;102661.16;1386546;89;21539;-80
2023/02/08 01:52:03;;;;;;;42.03;23.12;;;;;;;-2.18;84.57;102657.77;1551477;88;21392;-80
2023/02/08 01:54:34;;;;;;;42.55;22.27;;;;;;;-2.19;84.59;102657.77;1545636;89;21318;-81
2023/02/08 01:57:00;;;;;;;;;;;;;;;-2.21;84.56;102659.53;1391306;89;21392;-80
2023/02/08 01:59:35;;;;;;;46.98;21.97;;;;;;;-2.28;84.76;102651.77;1392362;88;20794;-78
2023/02/08 02:02:04;;;;;;;44.20;23.27;;;;;;;-2.27;84.51;102655.25;1550688;89;21370;-80
2023/02/08 02:04:30;;;;;;;44.42;21.93;;;;;;;-2.31;84.81;102663.46;1394850;89;21592;-78
2023/02/08 02:07:00;;;;;;;43.68;21.97;;;;;;;-2.33;84.89;102649.66;1551497;89;22228;-80
2023/02/08 02:09:41;;;;;;;42.75;20.70;;;;;;;-2.35;84.95;102655.29;1388365;89;21355;-82
2023/02/08 02:12:08;;;;;;;43.00;21.97;;;;;;;-2.38;85.06;102651.42;1388694;90;21422;-82
2023/02/08 02:14:37;;;;;;;37.15;19.30;;;;;;;-2.34;84.60;102658.30;1391592;89;21303;-80
2023/02/08 02:17:04;;;;;;;36.53;19.35;;;;;;;-2.41;85.19;102663.11;1394510;89;22430;-80
2023/02/08 02:19:41;;;;;;;47.33;23.12;;;;;;;-2.46;85.48;102659.68;1391504;89;21392;-79
2023/02/08 02:22:38;;;;;;;39.33;20.08;;;;;;;-2.44;85.32;102672.22;1545839;89;21370;-80
2023/02/08 02:25:25;;;;;;;44.88;22.13;;;;;;;-2.48;85.54;102664.45;1551483;88;21703;-80
2023/02/08 02:28:14;;;;;;;47.83;22.90;;;;;;;-2.52;85.67;102669.66;1401254;89;22323;-82
2023/02/08 02:31:16;;;;;;;38.42;20.10;;;;;;;-2.51;85.52;102674.40;1393463;90;21444;-82
2023/02/08 02:34:27;;;;;;;42.43;20.95;;;;;;;-2.57;85.84;102670.55;1551459;88;22346;-81
2023/02/08 02:37:32;;;;;;;46.68;21.87;;;;;;;-2.58;85.79;102677.91;1388163;91;22346;-81
2023/02/08 02:40:25;;;;;;;38.80;20.02;;;;;;;-2.58;85.45;102683.09;1551398;89;22103;-81
2023/02/08 02:46:09;;;;;;;40.23;20.00;;;;;;;-2.69;86.08;102685.73;1551581;89;21422;-79
2023/02/08 02:48:59;;;;;;;35.85;18.82;;;;;;;-2.72;86.08;102690.50;1545780;88;21377;-80
2023/02/08 02:51:49;;;;;;;36.35;18.82;;;;;;;-2.70;85.65;102692.21;1528124;89;21406;-81
2023/02/08 02:54:51;;;;;;;40.03;19.40;;;;;;;-2.75;85.90;102707.36;1469102;89;22427;-81
2023/02/08 02:57:25;;;;;;;39.18;20.48;;;;;;;-2.80;86.39;102702.62;1547936;89;21392;-81
2023/02/08 02:59:53;;;;;;;39.73;20.77;;;;;;;-2.83;86.47;102706.53;1534941;89;22302;-81
2023/02/08 03:02:23;;;;;;;40.52;20.90;;;;;;;-2.84;86.58;102706.11;1464611;88;21524;-80
2023/02/08 03:04:56;;;;;;;40.98;20.25;;;;;;;-2.81;86.46;102707.39;1463287;89;22389;-80
2023/02/08 03:07:43;;;;;;;40.05;21.48;;;;;;;-2.83;86.55;102713.01;1551578;88;21436;-80
2023/02/08 03:10:39;;;;;;;38.33;20.20;;;;;;;-2.81;86.20;102715.17;1397556;89;21340;-80
2023/02/08 03:13:32;;;;;;;38.90;19.55;;;;;;;-2.88;86.73;102712.16;1402155;89;21460;-81
2023/02/08 03:16:21;;;;;;;41.42;19.95;;;;;;;-2.90;86.75;102707.44;1473513;89;21413;-81
2023/02/08 03:19:20;;;;;;;35.03;19.32;;;;;;;-2.92;86.85;102723.41;1420745;89;21385;-81
2023/02/08 03:22:16;;;;;;;38.02;19.27;;;;;;;-2.95;87.02;102722.13;1395110;88;22342;-81
2023/02/08 03:24:56;;;;;;;41.28;21.30;;;;;;;-2.95;86.97;102723.43;1387982;86;21651;-82
2023/02/08 03:27:31;;;;;;;37.83;18.37;;;;;;;-2.96;87.12;102736.82;1369731;92;21446;-80
2023/02/08 03:30:14;;;;;;;39.85;20.27;;;;;;;-3.00;86.96;102731.64;1517048;89;21305;-82
2023/02/08 03:32:55;;;;;;;42.05;20.70;;;;;;;-3.00;87.15;102736.83;1360125;91;21469;-83
2023/02/08 03:35:37;;;;;;;30.02;16.25;;;;;;;-3.05;87.60;102732.08;1360431;93;21549;-82
2023/02/08 03:38:12;;;;;;;40.05;19.02;;;;;;;-3.08;87.84;102739.86;1516340;91;21445;-83
2023/02/08 03:40:43;;;;;;;40.20;19.27;;;;;;;-3.10;88.03;102736.44;1366812;91;21474;-82
2023/02/08 03:43:23;;;;;;;40.23;19.42;;;;;;;-3.06;87.74;102743.32;1516116;91;21493;-84
2023/02/08 03:46:13;;;;;;;41.45;19.30;;;;;;;-3.08;87.72;102747.63;1516673;90;21319;-83
2023/02/08 03:48:44;;;;;;;48.73;21.97;;;;;;;-3.13;88.00;102749.40;1361400;92;21371;-82
2023/02/08 03:51:11;;;;;;;39.65;20.50;;;;;;;-3.16;88.53;102741.20;1360918;90;21364;-85
2023/02/08 03:53:40;;;;;;;38.65;20.30;;;;;;;-3.18;88.51;102745.07;1380832;90;22303;-82
2023/02/08 03:56:11;;;;;;;42.35;22.50;;;;;;;-3.19;88.56;102751.13;1435962;90;21559;-82
2023/02/08 03:58:55;;;;;;;38.50;20.77;;;;;;;-3.21;88.83;102752.85;1362228;91;21512;-83
2023/02/08 04:01:42;;;;;;;40.98;18.98;;;;;;;-3.20;88.62;102758.45;1510729;91;21342;-84
2023/02/08 04:04:10;;;;;;;38.90;19.48;;;;;;;-3.21;88.58;102750.26;1345846;92;21553;-84
2023/02/08 04:06:36;;;;;;;42.00;20.85;;;;;;;-3.23;88.68;102761.05;1362303;91;21364;-80
2023/02/08 04:09:02;;;;;;;40.28;22.15;;;;;;;-3.25;88.76;102755.44;1492672;91;22326;-81
2023/02/08 04:11:31;;;;;;;39.40;21.40;;;;;;;-3.29;89.03;102761.06;1362038;90;21349;-79
2023/02/08 04:13:58;;;;;;;45.17;23.73;;;;;;;-3.27;88.58;102759.34;1398607;91;22443;-78
2023/02/08 04:16:24;;;;;;;39.42;21.95;;;;;;;-3.35;88.99;102764.95;1431402;91;21414;-79
2023/02/08 04:18:50;;;;;;;36.10;18.73;;;;;;;-3.40;89.55;102767.97;1433494;91;21518;-79
2023/02/08 04:21:16;;;;;;;33.85;20.25;;;;;;;-3.38;89.19;102772.73;1435244;90;22376;-80
2023/02/08 04:23:42;;;;;;;40.33;20.15;;;;;;;-3.36;88.39;102768.42;1430945;91;21674;-79
2023/02/08 04:26:08;;;;;;;39.63;20.82;;;;;;;-3.35;88.11;102770.13;1434800;90;21467;-79
2023/02/08 04:28:35;;;;;;;41.25;20.60;;;;;;;-3.41;88.59;102774.03;1430042;91;21430;-79
2023/02/08 04:31:02;;;;;;;39.63;20.57;;;;;;;-3.49;89.13;102768.84;1428010;91;21614;-81
2023/02/08 04:33:28;;;;;;;39.03;18.12;;;;;;;-3.51;89.02;102768.00;1430600;90;21481;-80
2023/02/08 04:35:54;;;;;;;39.90;19.65;;;;;;;-3.56;89.26;102776.63;1419324;91;21474;-80
2023/02/08 04:38:20;;;;;;;40.30;21.52;;;;;;;-3.61;89.86;102776.62;1432792;90;21430;-79
2023/02/08 04:40:47;;;;;;;36.88;19.73;;;;;;;-3.61;89.64;102782.23;1433147;90;22238;-80
2023/02/08 04:43:13;;;;;;;42.17;19.70;;;;;;;-3.63;89.19;102781.78;1416214;91;21577;-79
2023/02/08 04:45:39;;;;;;;40.88;19.25;;;;;;;-3.68;89.06;102780.08;1430833;90;21422;-78
2023/02/08 04:48:06;;;;;;;46.28;23.75;;;;;;;-3.76;89.67;102793.00;1435103;90;21696;-79
2023/02/08 04:50:34;;;;;;;44.30;21.52;;;;;;;-3.78;89.97;102790.84;1436911;90;21460;-80
2023/02/08 04:53:00;;;;;;;44.13;20.95;;;;;;;-3.79;89.63;102795.59;1362435;91;21566;-79
2023/02/08 04:55:26;;;;;;;45.63;20.77;;;;;;;-3.78;88.83;102788.25;1479271;91;21319;-79
2023/02/08 04:57:52;;;;;;;43.25;21.48;;;;;;;-3.85;89.98;102798.17;1364366;91;21526;-80
2023/02/08 05:00:19;;;;;;;42.75;22.40;;;;;;;-3.82;89.21;102803.34;1364358;90;21364;-81
2023/02/08 05:02:45;;;;;;;41.05;21.93;;;;;;;-3.80;88.49;102806.78;1370465;91;22200;-81
2023/02/08 05:05:11;;;;;;;44.03;21.50;;;;;;;-3.79;88.97;102813.70;1370261;90;21334;-80
2023/02/08 05:07:37;;;;;;;40.20;19.92;;;;;;;-3.76;88.33;102816.30;1365182;91;21501;-81
2023/02/08 05:10:04;;;;;;;42.75;23.18;;;;;;;-3.75;88.04;102818.01;1364423;90;22370;-84
2023/02/08 05:12:30;;;;;;;39.42;21.73;;;;;;;-3.72;87.61;102829.66;1363393;90;21341;-82
2023/02/08 05:14:56;;;;;;;44.23;23.02;;;;;;;-3.70;87.54;102830.53;1350032;92;21571;-82
2023/02/08 05:17:23;;;;;;;45.38;23.10;;;;;;;-3.70;87.24;102831.83;1367094;90;22288;-82
2023/02/08 05:19:49;;;;;;;39.42;21.20;;;;;;;-3.69;86.82;102836.13;1397096;90;21445;-82
2023/02/08 05:22:15;;;;;;;42.43;20.95;;;;;;;-3.69;86.60;102832.25;1439137;90;22138;-82
2023/02/08 05:24:42;;;;;;;36.30;19.60;;;;;;;-3.70;86.30;102837.00;1429427;90;22391;-84
2023/02/08 05:27:08;;;;;;;38.45;20.55;;;;;;;-3.70;86.00;102839.59;1435354;91;21517;-82
2023/02/08 05:29:34;;;;;;;44.70;22.07;;;;;;;-3.74;85.74;102838.28;1436513;90;21613;-80
2023/02/08 05:32:00;;;;;;;36.28;19.23;;;;;;;-3.76;85.62;102842.17;1433898;91;21519;-83
2023/02/08 05:34:26;;;;;;;43.45;20.65;;;;;;;-3.78;85.42;102844.32;1443828;90;21610;-81
2023/02/08 05:36:53;;;;;;;38.17;20.97;;;;;;;-3.80;85.40;102851.20;1429176;90;21644;-81
2023/02/08 05:39:19;;;;;;;39.78;20.62;;;;;;;-3.81;85.25;102854.23;1418176;91;21466;-80
2023/02/08 05:41:45;;;;;;;42.58;22.17;;;;;;;-3.82;85.22;102858.98;1436631;90;21622;-81
2023/02/08 05:44:11;;;;;;;47.23;22.27;;;;;;;-3.81;85.09;102867.17;1433935;91;21489;-79
2023/02/08 05:46:37;;;;;;;44.95;21.77;;;;;;;-3.83;85.00;102871.91;1436086;91;21452;-78
2023/02/08 05:49:04;;;;;;;47.80;25.50;;;;;;;-3.87;84.91;102869.31;1436124;91;21533;-79
2023/02/08 05:51:30;;;;;;;46.77;24.30;;;;;;;-3.91;84.83;102877.08;1436049;90;21778;-79
2023/02/08 05:53:56;;;;;;;48.10;23.38;;;;;;;-3.94;84.63;102878.33;1419494;91;21641;-79
2023/02/08 05:56:22;;;;;;;53.48;23.98;;;;;;;-3.95;84.61;102890.84;1437089;91;21445;-79
2023/02/08 05:58:48;;;;;;;65.90;29.18;;;;;;;-3.98;85.16;102892.98;1416350;91;22062;-78
2023/02/08 06:01:15;;;;;;;53.28;25.05;;;;;;;-4.01;84.98;102899.88;1428635;91;21533;-81
2023/02/08 06:03:41;;;;;;;50.30;24.30;;;;;;;-4.05;85.51;102906.77;1437158;91;22414;-81
2023/02/08 06:06:10;;;;;;;44.63;24.43;;;;;;;-4.10;85.69;102911.05;1436533;91;21666;-79
2023/02/08 06:08:37;;;;;;;56.10;25.77;;;;;;;-4.12;85.22;102911.03;1437426;90;21496;-81
2023/02/08 06:11:04;;;;;;;50.70;25.50;;;;;;;-4.11;85.96;102917.09;1437306;91;21437;-80
2023/02/08 06:13:30;;;;;;;49.08;25.80;;;;;;;-4.11;85.66;102915.80;1431163;90;21422;-78
2023/02/08 06:15:56;;;;;;;51.25;27.85;;;;;;;-4.08;85.54;102920.98;1414999;91;21696;-78
2023/02/08 06:18:23;;;;;;;49.38;26.37;;;;;;;-4.09;85.71;102926.56;1435934;91;21422;-81
2023/02/08 06:20:54;;;;;;;48.08;25.37;;;;;;;-4.05;85.49;102922.30;1434294;91;21594;-80
2023/02/08 06:23:21;;;;;;;48.25;25.55;;;;;;;-4.03;85.75;102924.87;1428472;90;22378;-80
2023/02/08 06:25:48;;;;;;;41.50;22.75;;;;;;;-4.02;85.85;102927.48;1435023;91;22198;-79
2023/02/08 06:28:14;;;;;;;42.23;22.90;;;;;;;-3.97;86.02;102928.37;1433533;90;21430;-78
2023/02/08 06:30:41;;;;;;;43.33;22.07;;;;;;;-3.93;86.47;102933.98;1433111;90;21459;-80
2023/02/08 06:33:07;;;;;;;40.80;22.30;;;;;;;-3.88;86.24;102940.48;1436374;90;21585;-79
2023/02/08 06:35:34;;;;;;;45.88;21.42;;;;;;;-3.86;86.38;102935.72;1430191;90;21731;-77
2023/02/08 06:38:00;;;;;;;45.50;21.42;;;;;;;-3.80;86.29;102937.47;1437266;90;21363;-77
2023/02/08 06:40:27;;;;;;;43.17;22.17;;;;;;;-3.73;86.12;102939.23;1432041;90;21466;-80
2023/02/08 06:42:53;;;;;;;38.17;20.82;;;;;;;-3.69;86.07;102938.37;1438533;90;21385;-80
2023/02/08 06:45:19;;;;;;;38.60;20.00;;;;;;;-3.63;86.04;102934.94;1432051;91;21511;-80
2023/02/08 06:47:45;;;;;;;50.80;26.17;;;;;;;-3.58;85.95;102940.14;1436221;90;21623;-80
2023/02/08 06:50:11;;;;;;;51.92;24.63;;;;;;;-3.51;85.96;102944.45;1433325;91;21496;-80
2023/02/08 06:52:38;;;;;;;48.95;22.25;;;;;;;-3.46;86.10;102949.22;1432462;90;21563;-79
2023/02/08 06:55:06;;;;;;;45.45;21.45;;;;;;;-3.39;86.13;102948.39;1438681;90;22340;-79
2023/02/08 06:57:32;;;;;;;34.98;20.37;;;;;;;-3.30;86.03;102956.17;1432324;90;21519;-79
2023/02/08 06:59:58;;;;;;;45.35;23.83;;;;;;;-3.22;85.92;102959.65;1438441;90;21436;-80
2023/02/08 07:02:24;;;;;;;39.88;21.87;;;;;;;-3.14;85.93;102958.78;1435285;90;22310;-79
2023/02/08 07:04:51;;;;;;;35.80;19.32;;;;;;;-3.04;85.79;102964.42;1437496;90;21931;-80
2023/02/08 07:07:17;;;;;;;33.23;19.52;;;;;;;-2.98;85.75;102967.87;1442712;90;21451;-80
2023/02/08 07:09:46;;;;;;;42.88;21.60;;;;;;;-2.92;85.68;102968.31;1516677;91;21416;-81
2023/02/08 07:12:12;;;;;;;36.80;18.70;;;;;;;-2.86;85.40;102963.13;1361228;93;21327;-80
2023/02/08 07:14:41;;;;;;;37.83;20.17;;;;;;;-2.78;85.36;102966.58;1364084;90;21409;-82
2023/02/08 07:17:08;;;;;;;42.27;23.27;;;;;;;-2.70;85.02;102970.89;1361690;91;22363;-83
2023/02/08 07:19:35;;;;;;;36.93;20.17;;;;;;;-2.64;84.90;102974.80;1363161;90;21357;-82
2023/02/08 07:22:06;;;;;;;44.18;23.05;;;;;;;-2.57;84.67;102971.33;1363994;90;21327;-81
2023/02/08 07:24:30;;;;;;;38.70;20.43;;;;;;;-2.46;84.72;102970.88;1372460;91;21475;-82
2023/02/08 07:26:56;;;;;;;38.92;21.70;;;;;;;-2.40;84.01;102976.05;1498713;91;21402;-82
2023/02/08 07:29:22;;;;;;;48.23;24.35;;;;;;;-2.31;83.90;102972.59;1364142;90;21326;-82
2023/02/08 07:31:48;;;;;;;45.95;23.50;;;;;;;-2.22;83.62;102974.30;1355255;92;21430;-85
2023/02/08 07:34:20;;;;;;;40.15;20.45;;;;;;;-2.11;82.87;102973.84;1413942;91;22295;-83
2023/02/08 07:36:43;;;;;;;40.75;21.35;;;;;;;-2.02;82.69;102972.95;1434091;91;21464;-84
2023/02/08 07:39:09;;;;;;;37.40;19.30;;;;;;;-1.96;81.96;102970.33;1418596;91;22837;-81
2023/02/08 07:41:35;;;;;;;34.18;19.00;;;;;;;-1.88;80.70;102974.63;1435447;91;21422;-84
2023/02/08 07:44:01;;;;;;;34.35;18.20;;;;;;;-1.75;81.09;102975.46;1434216;91;21573;-84
2023/02/08 07:46:27;;;;;;;33.00;16.50;;;;;;;-1.63;79.93;102975.84;1419994;91;21379;-84
2023/02/08 07:48:53;;;;;;;30.82;17.25;;;;;;;-1.53;79.76;102981.84;1435895;90;21327;-83
2023/02/08 07:51:19;;;;;;;27.32;14.78;;;;;;;-1.43;78.79;102979.19;1437559;90;21496;-83
2023/02/08 07:53:46;;;;;;;26.12;15.83;;;;;;;-1.45;77.74;102986.13;1434240;90;21409;-84
2023/02/08 07:56:12;;;;;;;29.42;16.55;;;;;;;-1.34;77.43;102986.52;1434874;90;21422;-82
2023/02/08 07:58:38;;;;;;;26.45;14.07;;;;;;;-1.30;76.36;102990.81;1430790;90;21356;-84
2023/02/08 08:01:05;;;;;;;28.98;15.48;;;;;;;-1.20;76.08;102988.59;1435190;90;21348;-83
2023/02/08 08:07:33;;;;;;;33.38;18.92;;;;;;;-1.04;74.25;103003.20;1425997;91;21467;-88
2023/02/08 08:09:59;;;;;;;133.93;70.03;;;;;;;-0.88;74.89;102996.61;1418720;91;21334;-85
2023/02/08 08:12:25;;;;;;;131.93;63.33;;;;;;;-0.78;74.34;103004.75;1435927;91;21400;-83
2023/02/08 08:14:52;;;;;;;348.30;169.02;;;;;;;-0.73;72.97;103001.69;1432389;90;21500;-86
2023/02/08 08:17:19;;;;;;;87.72;44.18;;;;;;;-0.60;73.72;103015.03;1429798;90;21436;-86
2023/02/08 08:19:45;;;;;;;43.17;28.40;;;;;;;-0.49;72.20;103011.02;1436452;90;21371;-85
2023/02/08 08:22:11;;;;;;;28.62;17.50;;;;;;;-0.40;71.36;103010.07;1435662;90;21356;-87
2023/02/08 08:24:37;;;;;;;51.97;30.97;;;;;;;-0.32;71.93;103013.47;1438539;90;21416;-85
2023/02/08 08:27:05;;;;;;;32.80;19.30;;;;;;;-0.26;70.92;103016.01;1437198;91;21845;-87
2023/02/08 08:29:34;;;;;;;69.92;38.02;;;;;;;-0.12;71.49;103018.48;1419658;91;21460;-87
2023/02/08 08:32:00;;;;;;;108.03;50.73;;;;;;;-0.07;69.16;103018.86;1437867;91;21585;-85
2023/02/08 08:34:29;;;;;;;46.90;25.33;;;;;;;0.10;71.52;103025.64;1436023;91;21986;-86
2023/02/08 08:37:01;;;;;;;20.83;11.50;;;;;;;0.18;66.87;103013.40;1430459;90;21829;-88
2023/02/08 08:39:28;;;;;;;41.20;21.83;;;;;;;0.33;68.96;103014.95;1439685;90;21789;-87
2023/02/08 08:41:59;;;;;;;42.17;22.70;;;;;;;0.42;67.92;103015.70;1403953;91;21586;-86
2023/02/08 08:44:27;;;;;;;20.77;11.53;;;;;;;0.57;68.00;103025.50;1438019;90;21724;-86
2023/02/08 08:46:58;;;;;;;22.70;11.87;;;;;;;0.65;64.86;103023.66;1437551;90;21648;-87
2023/02/08 08:49:25;;;;;;;18.15;10.80;;;;;;;0.78;65.50;103023.93;1435659;90;21596;-85
2023/02/08 08:51:51;;;;;;;19.63;12.07;;;;;;;0.85;63.55;103025.55;1436451;90;21290;-86
2023/02/08 08:54:18;;;;;;;21.27;11.37;;;;;;;0.94;65.60;103026.31;1434952;90;21510;-87
2023/02/08 08:56:44;;;;;;;22.07;10.37;;;;;;;1.05;65.07;103029.63;1436537;91;21518;-86
2023/02/08 08:59:11;;;;;;;19.40;10.80;;;;;;;1.07;61.63;103034.39;1435513;90;21534;-85
2023/02/08 09:01:37;;;;;;;18.33;10.43;;;;;;;1.08;60.59;103032.19;1436198;91;21575;-85
2023/02/08 09:04:06;;;;;;;18.90;12.33;;;;;;;1.21;61.94;103028.52;1432600;91;21699;-81
2023/02/08 09:06:32;;;;;;;17.33;10.57;;;;;;;1.34;62.47;103033.95;1436148;91;21622;-88
2023/02/08 09:09:18;;;;;;;23.20;12.93;;;;;;;1.42;62.68;103040.80;1436747;90;21713;-86
2023/02/08 09:11:45;;;;;;;17.73;10.67;;;;;;;1.43;60.96;103042.07;1435109;90;21647;-87
2023/02/08 09:14:11;;;;;;;18.90;12.33;;;;;;;1.54;60.42;103048.43;1434712;91;22778;-86
2023/02/08 09:16:46;;;;;;;18.47;10.90;;;;;;;1.64;61.48;103049.12;1434099;91;21631;-87
2023/02/08 09:19:10;;;;;;;16.07;9.17;;;;;;;1.73;61.72;103047.69;1434245;90;22102;-88
2023/02/08 09:21:36;;;;;;;19.70;10.70;;;;;;;1.71;58.81;103049.00;1436542;90;22413;-88
2023/02/08 09:24:03;;;;;;;31.90;17.60;;;;;;;1.70;59.45;103054.27;1416715;91;21993;-85
2023/02/08 09:26:30;;;;;;;28.27;17.47;;;;;;;1.68;58.85;103057.34;1438053;91;21747;-87
2023/02/08 09:28:56;;;;;;;20.33;10.60;;;;;;;1.76;58.30;103057.63;1419068;91;21615;-87
2023/02/08 09:31:25;;;;;;;21.50;12.10;;;;;;;1.83;57.39;103056.21;1437144;91;21542;-87
2023/02/08 09:33:55;;;;;;;20.63;11.57;;;;;;;1.90;56.35;103065.64;1516681;91;21588;-87
2023/02/08 09:36:23;;;;;;;20.73;11.70;;;;;;;2.16;56.97;103062.13;1362516;90;21781;-85
2023/02/08 09:38:59;;;;;;;19.00;11.30;;;;;;;2.83;53.67;103059.04;1361420;90;21817;-84
2023/02/08 09:41:42;;;;;;;17.30;10.63;;;;;;;3.78;55.64;103067.27;1391490;91;22130;-87
2023/02/08 09:44:36;;;;;;;15.80;10.00;;;;;;;4.63;52.47;103060.55;1434639;90;22826;-86
2023/02/08 09:47:27;;;;;;;18.33;11.20;;;;;;;5.21;47.84;103058.80;1433805;91;21563;-87
2023/02/08 09:50:18;;;;;;;17.77;12.17;;;;;;;5.91;49.60;103063.95;1436812;91;21548;-85
2023/02/08 09:53:05;;;;;;;17.30;12.13;;;;;;;6.62;49.07;103052.63;1436757;91;21611;-84
2023/02/08 10:00:12;;;;;;;17.53;10.23;;;;;;;7.26;46.51;103060.25;1435878;91;22243;-82
2023/02/08 10:02:42;;;;;;;17.27;11.30;;;;;;;7.60;46.65;103059.73;1436284;91;21430;-83
2023/02/08 10:05:16;;;;;;;17.43;11.30;;;;;;;7.80;45.73;103064.17;1437629;90;21335;-84
2023/02/08 10:07:42;;;;;;;17.57;11.20;;;;;;;8.09;44.12;103065.08;1434630;91;21757;-83
2023/02/08 10:10:29;;;;;;;14.83;10.27;;;;;;;8.16;43.79;103064.80;1435791;90;21372;-83
2023/02/08 10:13:08;;;;;;;14.37;9.73;;;;;;;8.10;41.66;103063.29;1428095;90;22042;-84
2023/02/08 10:16:07;;;;;;;15.00;9.53;;;;;;;8.21;40.26;103064.14;1503381;91;21275;-83
2023/02/08 10:18:53;;;;;;;14.57;10.67;;;;;;;8.52;40.18;103055.27;1481613;92;21423;-85
2023/02/08 10:21:53;;;;;;;13.37;8.03;;;;;;;8.23;41.15;103067.55;1453374;91;21453;-83
2023/02/08 10:24:43;;;;;;;13.90;9.77;;;;;;;7.89;38.11;103064.63;1368056;91;21298;-82
2023/02/08 10:27:16;;;;;;;14.93;9.23;;;;;;;8.32;42.50;103060.57;1496260;91;22244;-84
2023/02/08 10:30:06;;;;;;;12.83;9.63;;;;;;;8.51;38.78;103054.86;1469886;91;21891;-84
2023/02/08 10:32:54;;;;;;;16.13;11.63;;;;;;;8.72;39.93;103058.32;1430579;90;21422;-87
2023/02/08 10:35:43;;;;;;;14.90;10.80;;;;;;;8.48;36.63;103059.43;1435344;90;21473;-85
2023/02/08 10:38:31;;;;;;;14.23;9.53;;;;;;;8.18;37.44;103058.54;1434127;89;21481;-85
2023/02/08 10:41:04;;;;;;;15.17;10.80;;;;;;;8.23;38.56;103063.59;1436277;91;22266;-85
2023/02/08 10:43:35;;;;;;;15.07;11.83;;;;;;;8.13;40.20;103066.64;1376497;90;21478;-84
2023/02/08 10:46:19;;;;;;;17.50;12.70;;;;;;;8.14;38.43;103067.06;1435344;90;21588;-85
2023/02/08 10:49:20;;;;;;;16.80;11.47;;;;;;;8.10;40.12;103065.45;1431028;91;21452;-85
2023/02/08 10:51:46;;;;;;;19.95;11.70;;;;;;;8.01;37.73;103060.59;1434062;90;21444;-86
2023/02/08 10:54:14;;;;;;;15.27;11.13;;;;;;;7.98;38.30;103060.73;1436246;91;21529;-86
2023/02/08 10:56:57;;;;;;;17.77;12.33;;;;;;;7.88;39.01;103062.03;1363481;90;22083;-85
2023/02/08 10:59:48;;;;;;;17.97;12.70;;;;;;;7.90;39.18;103061.52;1515165;91;21312;-85
2023/02/08 11:02:27;;;;;;;17.20;12.33;;;;;;;8.19;40.60;103057.60;1510736;90;21343;-85
2023/02/08 11:05:13;;;;;;;17.20;12.33;;;;;;;8.34;40.44;103066.17;1516766;90;21361;-85
2023/02/08 11:07:39;;;;;;;17.83;13.83;;;;;;;8.48;40.91;103055.47;1516598;90;21950;-83
2023/02/08 11:10:23;;;;;;;17.07;12.43;;;;;;;8.40;40.23;103058.48;1397347;91;21403;-84
2023/02/08 11:13:06;;;;;;;17.33;11.83;;;;;;;8.31;38.85;103054.88;1443920;90;21408;-86
2023/02/08 11:15:58;;;;;;;16.57;11.40;;;;;;;8.24;39.94;103053.45;1437504;90;21469;-86
2023/02/08 11:18:39;;;;;;;17.63;12.33;;;;;;;8.34;38.97;103046.82;1421745;91;21393;-85
2023/02/08 11:21:32;;;;;;;22.85;16.10;;;;;;;8.57;40.59;103053.29;1434013;91;21445;-86
2023/02/08 11:24:02;;;;;;;21.73;16.30;;;;;;;8.58;39.43;103047.07;1437060;91;22377;-85
2023/02/08 11:26:39;;;;;;;19.55;14.05;;;;;;;8.51;40.70;103048.27;1433720;89;21757;-85
2023/02/08 11:29:28;;;;;;;16.97;12.97;;;;;;;8.55;40.70;103051.17;1436485;90;21445;-86
2023/02/08 11:32:01;;;;;;;17.43;12.57;;;;;;;8.31;38.31;103045.64;1435927;91;21423;-83
2023/02/08 11:34:40;;;;;;;18.73;13.70;;;;;;;8.16;38.26;103045.02;1434840;90;21305;-83
2023/02/08 11:37:27;;;;;;;17.90;13.67;;;;;;;8.44;41.00;103040.25;1435752;90;22369;-87
2023/02/08 11:39:58;;;;;;;17.77;12.67;;;;;;;8.19;39.64;103050.16;1435304;91;22487;-84
2023/02/08 11:42:28;;;;;;;17.33;13.00;;;;;;;8.20;38.83;103049.22;1436942;91;21547;-83
2023/02/08 11:44:57;;;;;;;17.12;12.25;;;;;;;8.18;39.08;103044.03;1436292;90;21393;-85